Time;durP1;ratioP1;P1;durP2;ratioP2;P2;SDS_P1;SDS_P2;PMS_P1;PMS_P2;Temp;Humidity;BMP_temperature;BMP_pressure;BME280_temperature;BME280_humidity;BME280_pressure;Samples;Min_cycle;Max_cycle;Signal;HPM_P1;HPM_P2
2021/12/16 00:05:12;;;;;;;16.10;6.22;;;9.00;99.90;;;;;;5091151;28;20554;-44
2021/12/16 00:09:11;;;;;;;15.65;6.47;;;9.00;99.90;;;;;;5077212;28;20052;-43
2021/12/16 00:33:18;;;;;;;13.70;6.70;;;8.90;99.90;;;;;;5088183;28;20472;-45
2021/12/16 00:35:50;;;;;;;14.55;6.78;;;8.90;99.90;;;;;;5075761;28;20106;-43
2021/12/16 00:38:17;;;;;;;18.70;7.97;;;8.90;99.90;;;;;;5076063;28;20060;-44
2021/12/16 00:40:43;;;;;;;18.10;6.70;;;8.80;99.90;;;;;;5083052;28;20103;-43
2021/12/16 00:44:05;;;;;;;22.27;8.05;;;8.90;99.90;;;;;;5095378;28;20085;-43
2021/12/16 00:49:01;;;;;;;12.27;6.90;;;8.90;99.90;;;;;;5095283;28;20067;-43
2021/12/16 00:54:14;;;;;;;17.27;7.88;;;8.90;99.90;;;;;;5094303;28;20066;-42
2021/12/16 00:56:57;;;;;;;20.55;7.22;;;8.80;99.90;;;;;;5078622;28;20112;-43
2021/12/16 00:59:26;;;;;;;21.52;8.57;;;8.80;99.90;;;;;;5077339;28;20060;-44
2021/12/16 01:02:09;;;;;;;;;;;8.80;99.90;;;;;;5093162;28;20051;-44
2021/12/16 01:35:32;;;;;;;18.98;8.27;;;8.80;99.90;;;;;;5087602;28;20058;-44
2021/12/16 01:41:18;;;;;;;19.35;7.85;;;8.70;99.90;;;;;;5087237;28;20101;-43
2021/12/16 01:49:09;;;;;;;21.85;9.25;;;8.70;99.90;;;;;;5094959;28;20142;-42
2021/12/16 01:57:08;;;;;;;17.63;8.63;;;8.70;99.90;;;;;;5079462;28;20406;-44
2021/12/16 01:59:36;;;;;;;15.25;8.60;;;8.70;99.90;;;;;;5092031;28;20101;-43
2021/12/16 02:02:15;;;;;;;18.42;8.50;;;8.60;99.90;;;;;;5087856;28;20086;-43
2021/12/16 02:05:05;;;;;;;21.70;9.27;;;8.70;99.90;;;;;;5086266;28;20032;-44
2021/12/16 02:08:08;;;;;;;23.15;9.70;;;8.60;99.90;;;;;;5092008;28;20543;-43
2021/12/16 02:10:39;;;;;;;17.25;8.05;;;8.60;99.90;;;;;;5092390;28;20089;-43
2021/12/16 02:27:25;;;;;;;20.50;8.32;;;8.60;99.90;;;;;;5084043;28;20119;-43
2021/12/16 02:27:32;;;;;;;17.98;8.88;;;8.70;99.90;;;;;;5073613;28;20038;-44
2021/12/16 02:30:50;;;;;;;16.13;8.68;;;8.70;99.90;;;;;;5074061;28;20029;-45
2021/12/16 02:33:09;;;;;;;20.20;7.63;;;8.70;99.90;;;;;;5074243;28;20634;-45
2021/12/16 02:35:43;;;;;;;25.27;9.70;;;8.70;99.90;;;;;;5077123;28;20036;-43
2021/12/16 02:38:12;;;;;;;18.65;7.60;;;8.70;99.90;;;;;;5085284;28;20119;-43
2021/12/16 02:40:38;;;;;;;19.33;7.57;;;8.70;99.90;;;;;;5073290;28;20028;-44
2021/12/16 02:48:39;;;;;;;16.40;7.68;;;8.80;99.90;;;;;;5093075;28;20067;-44
2021/12/16 02:51:16;;;;;;;23.08;9.35;;;8.80;99.90;;;;;;5082111;28;20471;-44
2021/12/16 02:53:44;;;;;;;29.85;9.23;;;8.80;99.90;;;;;;5081165;28;20466;-44
2021/12/16 02:56:10;;;;;;;22.40;9.13;;;8.90;99.90;;;;;;5092468;28;20085;-44
2021/12/16 02:58:39;;;;;;;19.02;8.32;;;8.80;99.90;;;;;;5091725;28;20394;-44
2021/12/16 03:01:31;;;;;;;18.90;8.52;;;8.90;99.90;;;;;;5091937;28;20023;-43
2021/12/16 03:03:59;;;;;;;17.48;7.95;;;8.90;99.90;;;;;;5079329;28;20040;-45
2021/12/16 03:06:27;;;;;;;16.60;8.00;;;8.90;99.90;;;;;;5092358;28;20489;-44
2021/12/16 03:08:54;;;;;;;20.17;8.70;;;8.90;99.90;;;;;;5077219;28;20085;-43
2021/12/16 03:14:16;;;;;;;19.13;8.38;;;8.80;99.90;;;;;;5079984;28;20234;-43
2021/12/16 03:16:58;;;;;;;23.05;8.80;;;8.90;99.90;;;;;;5074412;28;20082;-44
2021/12/16 03:21:59;;;;;;;14.00;7.53;;;8.80;99.90;;;;;;5093473;28;20478;-43
2021/12/16 03:34:44;;;;;;;24.67;9.63;;;8.90;99.90;;;;;;5075421;28;20041;-44
2021/12/16 03:37:18;;;;;;;17.20;8.68;;;8.90;99.90;;;;;;5077907;28;20534;-45
2021/12/16 03:39:53;;;;;;;21.73;8.40;;;8.80;99.90;;;;;;5081004;28;20063;-45
2021/12/16 03:42:27;;;;;;;22.80;9.70;;;8.80;99.90;;;;;;5072137;28;20020;-43
2021/12/16 03:44:59;;;;;;;25.80;10.48;;;8.80;99.90;;;;;;5071793;28;20028;-43
2021/12/16 03:47:42;;;;;;;22.20;10.20;;;8.80;99.90;;;;;;5079755;28;20031;-45
2021/12/16 03:50:14;;;;;;;18.25;8.98;;;8.70;99.90;;;;;;5091814;28;20067;-43
2021/12/16 03:52:40;;;;;;;25.92;9.75;;;8.70;99.90;;;;;;5089976;28;20130;-43
2021/12/16 03:55:08;;;;;;;22.45;8.38;;;8.70;99.90;;;;;;5073826;28;20127;-43
2021/12/16 03:57:34;;;;;;;20.20;9.07;;;8.60;99.90;;;;;;5073223;28;20037;-43
2021/12/16 04:00:01;;;;;;;21.75;9.85;;;8.60;99.90;;;;;;5072300;28;20369;-43
2021/12/16 04:02:33;;;;;;;18.80;8.38;;;8.60;99.90;;;;;;5072307;28;20024;-44
2021/12/16 04:05:00;;;;;;;20.10;7.82;;;8.60;99.90;;;;;;5075510;28;20029;-44
2021/12/16 04:07:35;;;;;;;21.60;9.25;;;8.50;99.90;;;;;;5080964;28;20024;-45
2021/12/16 04:10:06;;;;;;;20.33;9.50;;;8.50;99.90;;;;;;5086018;28;20036;-46
2021/12/16 04:12:32;;;;;;;17.75;8.55;;;8.50;99.90;;;;;;5075332;28;20040;-44
2021/12/16 04:15:00;;;;;;;26.83;10.93;;;8.50;99.90;;;;;;5075792;28;20024;-44
2021/12/16 04:17:28;;;;;;;23.65;8.93;;;8.40;99.90;;;;;;5080501;28;20020;-44
2021/12/16 04:19:55;;;;;;;20.92;8.40;;;8.30;99.90;;;;;;5095591;28;20024;-43
2021/12/16 04:22:30;;;;;;;22.45;9.77;;;8.30;99.90;;;;;;5095760;28;20012;-45
2021/12/16 04:24:58;;;;;;;19.20;9.13;;;8.30;99.90;;;;;;5096018;28;20028;-44
2021/12/16 04:27:24;;;;;;;21.93;10.33;;;8.30;99.90;;;;;;5090556;28;20032;-44
2021/12/16 04:29:50;;;;;;;21.50;10.15;;;8.30;99.90;;;;;;5075498;28;20274;-44
2021/12/16 04:32:16;;;;;;;23.98;8.68;;;8.40;99.90;;;;;;5077180;28;20028;-43
2021/12/16 04:34:42;;;;;;;27.15;10.50;;;8.40;99.90;;;;;;5075567;28;20025;-43
2021/12/16 04:37:07;;;;;;;25.95;9.52;;;8.40;99.90;;;;;;5087741;28;20150;-44
2021/12/16 04:39:35;;;;;;;28.88;10.02;;;8.40;99.90;;;;;;5094168;28;20107;-43
2021/12/16 04:42:02;;;;;;;25.23;10.47;;;8.40;99.90;;;;;;5077507;28;20021;-43
2021/12/16 04:44:28;;;;;;;25.52;8.95;;;8.30;99.90;;;;;;5075844;28;20494;-43
2021/12/16 04:46:56;;;;;;;20.05;9.57;;;8.30;99.90;;;;;;5075977;28;20024;-43
2021/12/16 04:49:23;;;;;;;21.17;9.70;;;8.30;99.90;;;;;;5086100;28;20017;-45
2021/12/16 04:51:53;;;;;;;22.60;10.02;;;8.30;99.90;;;;;;5095355;28;20463;-45
2021/12/16 04:54:20;;;;;;;25.40;10.00;;;8.20;99.90;;;;;;5079383;28;20036;-44
2021/12/16 04:56:47;;;;;;;22.77;8.90;;;8.20;99.90;;;;;;5076502;28;20056;-44
2021/12/16 04:59:16;;;;;;;19.55;9.00;;;8.20;99.90;;;;;;5075416;28;20041;-44
2021/12/16 05:01:45;;;;;;;24.15;9.90;;;8.10;99.90;;;;;;5076326;28;20115;-43
2021/12/16 05:04:12;;;;;;;20.55;8.75;;;8.10;99.90;;;;;;5075557;28;20028;-44
2021/12/16 05:06:38;;;;;;;22.10;10.23;;;8.00;99.90;;;;;;5075664;28;20545;-45
2021/12/16 05:09:05;;;;;;;23.85;9.68;;;7.90;99.90;;;;;;5090505;28;20024;-43
2021/12/16 05:11:34;;;;;;;26.50;8.83;;;7.90;99.90;;;;;;5078188;28;20047;-44
2021/12/16 05:14:00;;;;;;;21.30;9.90;;;7.80;99.90;;;;;;5094889;28;20359;-44
2021/12/16 05:16:25;;;;;;;20.50;9.52;;;7.80;99.90;;;;;;5094446;28;20023;-44
2021/12/16 05:18:54;;;;;;;26.48;10.68;;;7.90;99.90;;;;;;5081539;28;20031;-44
2021/12/16 05:21:42;;;;;;;19.98;9.60;;;7.90;99.90;;;;;;5075239;28;20032;-43
2021/12/16 05:24:25;;;;;;;21.25;9.88;;;7.90;99.90;;;;;;5084121;28;20032;-43
2021/12/16 05:26:56;;;;;;;24.75;9.13;;;7.90;99.90;;;;;;5095588;28;20024;-44
2021/12/16 05:29:23;;;;;;;24.65;10.82;;;7.90;99.90;;;;;;5077543;28;20146;-43
2021/12/16 05:31:48;;;;;;;23.83;10.45;;;7.90;99.90;;;;;;5075142;28;20059;-44
2021/12/16 05:34:14;;;;;;;22.40;8.65;;;7.90;99.90;;;;;;5074948;28;20056;-44
2021/12/16 05:36:40;;;;;;;27.45;11.50;;;8.00;99.90;;;;;;5093292;28;20497;-44
2021/12/16 05:39:07;;;;;;;23.27;10.25;;;8.00;99.90;;;;;;5095260;28;20020;-43
2021/12/16 05:41:33;;;;;;;26.65;10.98;;;8.00;99.90;;;;;;5092084;28;20024;-42
2021/12/16 05:43:59;;;;;;;24.55;10.23;;;8.00;99.90;;;;;;5074302;28;20039;-44
2021/12/16 05:46:26;;;;;;;20.23;9.65;;;8.00;99.90;;;;;;5074639;28;20028;-44
2021/12/16 05:48:53;;;;;;;27.65;11.15;;;8.10;99.90;;;;;;5074837;28;20504;-44
2021/12/16 05:51:25;;;;;;;20.88;9.25;;;8.20;99.90;;;;;;5085903;28;20089;-44
2021/12/16 05:53:52;;;;;;;27.30;10.65;;;8.20;99.90;;;;;;5094976;28;20036;-43
2021/12/16 05:56:18;;;;;;;24.92;12.40;;;8.20;99.90;;;;;;5092380;28;20028;-44
2021/12/16 05:58:45;;;;;;;20.00;9.63;;;8.30;99.90;;;;;;5092350;28;20047;-44
2021/12/16 06:01:16;;;;;;;25.95;10.25;;;8.30;99.90;;;;;;5093045;28;20495;-44
2021/12/16 06:03:43;;;;;;;22.45;9.43;;;8.30;99.90;;;;;;5094811;28;20029;-44
2021/12/16 06:06:09;;;;;;;24.80;10.32;;;8.30;99.90;;;;;;5093965;28;20027;-43
2021/12/16 06:08:35;;;;;;;26.23;10.02;;;8.30;99.90;;;;;;5080938;28;20024;-43
2021/12/16 06:13:34;;;;;;;28.95;11.35;;;8.30;99.90;;;;;;5079192;28;20476;-44
2021/12/16 06:27:14;;;;;;;20.75;9.65;;;8.30;99.90;;;;;;5073285;28;20056;-44
2021/12/16 06:29:46;;;;;;;21.45;9.55;;;8.30;99.90;;;;;;5075173;28;20104;-44
2021/12/16 06:32:13;;;;;;;22.27;9.20;;;8.30;99.90;;;;;;5073900;28;20043;-44
2021/12/16 06:34:39;;;;;;;24.90;10.75;;;8.30;99.90;;;;;;5086229;28;20145;-43
2021/12/16 06:37:06;;;;;;;27.20;9.63;;;8.40;99.90;;;;;;5093758;28;20024;-43
2021/12/16 06:39:31;;;;;;;28.58;9.73;;;8.40;99.90;;;;;;5092059;28;20016;-44
2021/12/16 06:41:58;;;;;;;24.55;10.25;;;8.40;99.90;;;;;;5073260;28;20082;-44
2021/12/16 06:44:33;;;;;;;30.77;10.30;;;8.40;99.90;;;;;;5085771;28;20031;-45
2021/12/16 06:47:05;;;;;;;24.50;10.80;;;8.40;99.90;;;;;;5073275;28;20047;-45
2021/12/16 06:49:32;;;;;;;27.10;9.43;;;8.40;99.90;;;;;;5083198;28;20030;-44
2021/12/16 06:52:02;;;;;;;22.83;8.88;;;8.40;99.90;;;;;;5093831;28;20027;-44
2021/12/16 06:54:33;;;;;;;27.98;10.43;;;8.40;99.90;;;;;;5093176;28;20044;-43
2021/12/16 06:57:20;;;;;;;27.55;10.13;;;8.40;99.90;;;;;;5092012;28;20032;-43
2021/12/16 07:00:10;;;;;;;25.10;11.40;;;8.40;99.90;;;;;;5074190;28;20090;-43
2021/12/16 07:02:46;;;;;;;27.90;10.52;;;8.40;99.90;;;;;;5073568;28;20105;-44
2021/12/16 07:05:13;;;;;;;24.10;9.90;;;8.40;99.90;;;;;;5073386;28;20037;-43
2021/12/16 07:07:39;;;;;;;21.02;10.48;;;8.30;99.90;;;;;;5073514;28;20027;-45
2021/12/16 07:10:07;;;;;;;22.17;9.93;;;8.30;99.90;;;;;;5077231;28;20020;-43
2021/12/16 07:12:38;;;;;;;20.70;9.00;;;8.30;99.90;;;;;;5075720;28;20046;-43
2021/12/16 07:15:08;;;;;;;21.73;9.52;;;8.20;99.90;;;;;;5073727;28;20042;-43
2021/12/16 07:17:35;;;;;;;21.08;10.43;;;8.10;99.90;;;;;;5073431;28;20043;-44
2021/12/16 07:20:00;;;;;;;22.70;9.52;;;8.10;99.90;;;;;;5076730;28;20074;-44
2021/12/16 07:22:26;;;;;;;20.42;9.82;;;8.10;99.90;;;;;;5076149;28;20021;-44
2021/12/16 07:24:52;;;;;;;22.65;9.32;;;8.10;99.90;;;;;;5072960;28;20021;-44
2021/12/16 07:27:17;;;;;;;19.23;8.85;;;8.10;99.90;;;;;;5073026;28;20025;-44
2021/12/16 07:29:43;;;;;;;22.35;10.50;;;8.00;99.90;;;;;;5073682;28;20020;-43
2021/12/16 07:32:08;;;;;;;24.88;9.65;;;8.00;99.90;;;;;;5072827;28;20407;-45
2021/12/16 07:34:34;;;;;;;27.75;10.20;;;8.00;99.90;;;;;;5085057;28;20028;-43
2021/12/16 07:37:04;;;;;;;18.70;9.93;;;7.90;99.90;;;;;;5075834;28;20012;-44
2021/12/16 07:39:38;;;;;;;23.55;9.43;;;7.90;99.90;;;;;;5092979;28;20024;-43
2021/12/16 07:42:05;;;;;;;26.77;11.25;;;7.90;99.90;;;;;;5092803;28;20031;-44
2021/12/16 07:44:32;;;;;;;22.65;10.07;;;7.90;99.90;;;;;;5086373;28;20034;-44
2021/12/16 07:47:02;;;;;;;20.10;9.95;;;7.90;99.90;;;;;;5084009;28;20027;-44
2021/12/16 07:49:30;;;;;;;21.35;10.38;;;7.80;99.90;;;;;;5082970;28;20048;-44
2021/12/16 07:51:57;;;;;;;20.17;9.32;;;7.80;99.90;;;;;;5071502;28;20096;-44
2021/12/16 07:54:24;;;;;;;29.75;10.90;;;7.80;99.90;;;;;;5084183;28;20088;-43
2021/12/16 07:56:52;;;;;;;19.83;8.73;;;7.80;99.90;;;;;;5079542;28;20545;-43
2021/12/16 07:59:18;;;;;;;29.67;9.77;;;7.80;99.90;;;;;;5087258;28;20042;-43
2021/12/16 08:01:45;;;;;;;23.90;9.93;;;7.70;99.90;;;;;;5089537;28;20020;-44
2021/12/16 08:04:19;;;;;;;20.20;8.70;;;7.70;99.90;;;;;;5071584;28;20052;-44
2021/12/16 08:06:48;;;;;;;22.00;9.93;;;7.60;99.90;;;;;;5071927;28;20020;-44
2021/12/16 08:09:14;;;;;;;25.48;9.00;;;7.60;99.90;;;;;;5072829;28;20586;-44
2021/12/16 08:11:41;;;;;;;22.13;10.48;;;7.60;99.90;;;;;;5071352;28;20075;-44
2021/12/16 08:14:08;;;;;;;27.90;11.00;;;7.60;99.90;;;;;;5072102;28;20506;-45
2021/12/16 08:16:34;;;;;;;24.05;10.23;;;7.60;99.90;;;;;;5071748;28;20387;-43
2021/12/16 08:19:00;;;;;;;24.65;11.20;;;7.60;99.90;;;;;;5082057;28;20033;-44
2021/12/16 08:21:29;;;;;;;22.02;10.13;;;7.60;99.90;;;;;;5091744;28;20028;-44
2021/12/16 08:23:57;;;;;;;18.23;7.78;;;7.70;99.90;;;;;;5092108;28;20021;-43
2021/12/16 08:26:23;;;;;;;20.67;9.77;;;7.60;99.90;;;;;;5091309;28;20035;-45
2021/12/16 08:28:48;;;;;;;21.08;9.55;;;7.60;99.90;;;;;;5082121;28;20275;-43
2021/12/16 08:31:14;;;;;;;23.48;9.18;;;7.70;99.90;;;;;;5071906;28;20012;-43
2021/12/16 08:33:40;;;;;;;25.08;10.52;;;7.70;99.90;;;;;;5087869;28;20032;-43
2021/12/16 08:36:09;;;;;;;26.35;10.45;;;7.70;99.90;;;;;;5092123;28;20019;-44
2021/12/16 08:38:37;;;;;;;26.92;12.35;;;7.80;99.90;;;;;;5081471;28;20059;-43
2021/12/16 08:41:08;;;;;;;26.80;12.18;;;7.90;99.90;;;;;;5071122;28;20032;-44
2021/12/16 08:43:40;;;;;;;20.33;10.50;;;7.90;99.90;;;;;;5071483;28;20075;-44
2021/12/16 08:46:07;;;;;;;25.90;10.48;;;8.00;99.90;;;;;;5071693;28;20028;-43
2021/12/16 08:48:34;;;;;;;25.92;11.65;;;8.00;99.90;;;;;;5080580;28;20113;-43
2021/12/16 08:51:00;;;;;;;26.55;10.20;;;8.00;99.90;;;;;;5095701;28;20027;-44
2021/12/16 08:53:26;;;;;;;25.08;9.80;;;8.10;99.90;;;;;;5094664;28;20028;-43
2021/12/16 08:55:54;;;;;;;22.75;10.13;;;8.10;99.90;;;;;;5095519;28;20024;-43
2021/12/16 08:58:22;;;;;;;26.40;11.00;;;8.20;99.90;;;;;;5087791;28;20087;-44
2021/12/16 09:00:56;;;;;;;29.45;11.63;;;8.20;99.90;;;;;;5083306;28;20020;-43
2021/12/16 09:03:23;;;;;;;32.80;11.25;;;8.20;99.90;;;;;;5074817;28;20029;-45
2021/12/16 09:05:49;;;;;;;27.48;11.35;;;8.30;99.90;;;;;;5094557;28;20493;-44
2021/12/16 09:08:15;;;;;;;25.90;12.55;;;8.40;99.90;;;;;;5094863;28;20091;-44
2021/12/16 09:10:41;;;;;;;32.80;11.90;;;8.50;99.90;;;;;;5094859;28;20077;-44
2021/12/16 09:13:12;;;;;;;29.92;11.57;;;8.50;99.90;;;;;;5095012;28;20025;-44
2021/12/16 09:16:00;;;;;;;37.70;12.25;;;8.60;99.90;;;;;;5094378;28;20036;-43
2021/12/16 09:18:28;;;;;;;30.40;12.33;;;8.60;99.90;;;;;;5074750;28;20035;-44
2021/12/16 09:20:55;;;;;;;23.90;9.70;;;8.70;99.90;;;;;;5074934;28;20020;-43
2021/12/16 09:23:21;;;;;;;31.38;10.73;;;8.70;99.90;;;;;;5074383;28;20085;-44
2021/12/16 09:25:48;;;;;;;29.90;10.88;;;8.70;99.90;;;;;;5074413;28;20099;-44
2021/12/16 09:28:16;;;;;;;31.20;11.70;;;8.80;99.90;;;;;;5074689;28;20036;-44
2021/12/16 09:30:42;;;;;;;29.08;11.30;;;8.80;99.90;;;;;;5073950;28;20108;-44
2021/12/16 09:33:16;;;;;;;33.05;12.02;;;8.80;99.90;;;;;;5094286;28;20460;-44
2021/12/16 09:35:44;;;;;;;25.48;11.13;;;8.90;99.90;;;;;;5077225;28;20040;-44
2021/12/16 09:38:11;;;;;;;23.55;9.25;;;8.90;99.90;;;;;;5074464;28;20017;-43
2021/12/16 09:40:45;;;;;;;31.70;10.30;;;8.90;99.90;;;;;;5073992;28;20020;-44
2021/12/16 09:43:10;;;;;;;28.25;10.73;;;8.80;99.90;;;;;;5073933;28;20025;-44
2021/12/16 09:45:36;;;;;;;22.42;9.73;;;8.80;99.90;;;;;;5082664;28;20024;-43
2021/12/16 09:48:02;;;;;;;30.85;10.88;;;8.80;99.90;;;;;;5077627;28;20108;-45
2021/12/16 09:50:30;;;;;;;26.02;9.50;;;8.90;99.90;;;;;;5076637;28;20020;-44
2021/12/16 09:52:56;;;;;;;31.42;11.18;;;8.80;99.90;;;;;;5092360;28;20376;-44
2021/12/16 09:55:22;;;;;;;25.00;9.85;;;8.80;99.90;;;;;;5085048;28;20020;-46
2021/12/16 09:57:48;;;;;;;24.77;10.00;;;8.90;99.90;;;;;;5073650;28;20494;-45
2021/12/16 10:00:19;;;;;;;26.13;9.32;;;8.80;99.90;;;;;;5085440;28;20089;-43
2021/12/16 10:02:46;;;;;;;25.70;8.93;;;8.90;99.90;;;;;;5093954;28;20444;-44
2021/12/16 10:05:12;;;;;;;31.88;10.20;;;8.90;99.90;;;;;;5093644;28;20091;-44
2021/12/16 10:07:38;;;;;;;26.42;10.35;;;8.90;99.90;;;;;;5093849;28;20099;-43
2021/12/16 10:10:09;;;;;;;28.52;10.75;;;8.90;99.90;;;;;;5094227;28;20043;-44
2021/12/16 10:12:39;;;;;;;31.70;10.57;;;8.90;99.90;;;;;;5078563;28;20475;-43
2021/12/16 10:17:23;;;;;;;29.48;9.07;;;8.90;99.90;;;;;;5073757;28;20506;-45
2021/12/16 10:17:55;;;;;;;28.95;9.65;;;8.90;99.90;;;;;;5072937;28;20041;-43
2021/12/16 10:20:31;;;;;;;32.53;9.18;;;9.00;99.90;;;;;;5073667;28;20024;-43
2021/12/16 10:23:06;;;;;;;28.77;9.25;;;8.90;99.90;;;;;;5073584;28;20085;-43
2021/12/16 10:25:38;;;;;;;26.13;9.77;;;9.00;99.90;;;;;;5072670;28;20029;-43
2021/12/16 10:28:08;;;;;;;31.48;10.10;;;9.00;99.90;;;;;;5073401;28;20059;-45
2021/12/16 10:30:52;;;;;;;37.13;11.15;;;9.10;99.90;;;;;;5073220;28;20043;-43
2021/12/16 10:33:43;;;;;;;31.67;10.70;;;9.10;99.90;;;;;;5072809;28;20029;-43
2021/12/16 10:36:23;;;;;;;33.30;11.07;;;9.20;99.90;;;;;;5072814;28;20044;-43
2021/12/16 10:38:53;;;;;;;41.72;10.43;;;9.30;99.90;;;;;;5072782;28;20024;-43
2021/12/16 10:41:26;;;;;;;36.15;11.43;;;9.30;99.90;;;;;;5073134;28;20371;-43
2021/12/16 10:44:20;;;;;;;25.25;10.00;;;9.40;99.90;;;;;;5073184;28;20447;-43
2021/12/16 10:46:50;;;;;;;23.17;9.52;;;9.40;99.90;;;;;;5069333;28;20028;-44
2021/12/16 10:49:19;;;;;;;25.55;9.38;;;9.40;99.90;;;;;;5088994;28;20466;-44
2021/12/16 10:51:48;;;;;;;24.80;9.65;;;9.40;99.90;;;;;;5092931;28;20016;-44
2021/12/16 10:54:18;;;;;;;28.95;10.05;;;9.40;99.90;;;;;;5092654;28;20056;-44
2021/12/16 10:57:25;;;;;;;18.92;8.73;;;9.40;99.90;;;;;;5092907;28;20031;-44
2021/12/16 11:00:10;;;;;;;25.98;10.13;;;9.40;99.90;;;;;;5069642;28;20052;-44
2021/12/16 11:02:38;;;;;;;20.42;8.15;;;9.40;99.90;;;;;;5092723;28;20028;-43
2021/12/16 11:05:20;;;;;;;20.85;9.45;;;9.40;99.90;;;;;;5093052;28;20028;-44
2021/12/16 11:07:51;;;;;;;25.63;8.93;;;9.40;99.90;;;;;;5092082;28;20111;-44
2021/12/16 11:10:27;;;;;;;24.33;7.88;;;9.40;99.90;;;;;;5078754;28;20060;-43
2021/12/16 11:13:08;;;;;;;26.30;9.85;;;9.40;99.90;;;;;;5072105;28;20036;-44
2021/12/16 11:15:36;;;;;;;29.08;10.27;;;9.40;99.90;;;;;;5071858;28;20028;-45
2021/12/16 11:18:15;;;;;;;22.90;9.27;;;9.40;99.90;;;;;;5072622;28;20367;-43
2021/12/16 11:20:49;;;;;;;22.50;8.60;;;9.40;99.90;;;;;;5085105;28;20178;-43
2021/12/16 11:23:21;;;;;;;24.77;9.27;;;9.40;99.90;;;;;;5092313;28;20390;-43
2021/12/16 11:25:52;;;;;;;24.83;9.02;;;9.40;99.90;;;;;;5092603;28;20036;-43
2021/12/16 11:28:23;;;;;;;21.88;8.25;;;9.40;99.90;;;;;;5092144;28;20165;-43
2021/12/16 11:30:54;;;;;;;19.55;9.63;;;9.50;99.90;;;;;;5072543;28;20380;-45
2021/12/16 11:33:27;;;;;;;24.17;7.90;;;9.50;99.90;;;;;;5072448;28;20107;-44
2021/12/16 11:36:11;;;;;;;19.33;7.75;;;9.40;99.90;;;;;;5071821;28;20082;-43
2021/12/16 11:38:44;;;;;;;29.42;9.45;;;9.50;99.90;;;;;;5073037;28;20025;-44
2021/12/16 11:41:24;;;;;;;24.08;9.85;;;9.50;99.90;;;;;;5091629;28;20107;-43
2021/12/16 11:43:56;;;;;;;21.73;8.73;;;9.60;99.90;;;;;;5092066;28;20546;-43
2021/12/16 11:46:33;;;;;;;26.67;9.80;;;9.60;99.90;;;;;;5092422;28;20081;-44
2021/12/16 11:49:03;;;;;;;21.20;8.20;;;9.60;99.90;;;;;;5089725;28;20491;-44
2021/12/16 11:51:32;;;;;;;26.42;8.95;;;9.60;99.90;;;;;;5080334;28;20020;-44
2021/12/16 11:54:06;;;;;;;25.45;9.27;;;9.60;99.90;;;;;;5092393;28;20375;-44
2021/12/16 11:56:39;;;;;;;20.80;7.53;;;9.60;99.90;;;;;;5077057;28;20029;-44
2021/12/16 11:59:06;;;;;;;23.50;7.68;;;9.60;99.90;;;;;;5071903;28;20049;-43
2021/12/16 12:01:35;;;;;;;22.13;7.68;;;9.70;99.90;;;;;;5071947;28;20041;-44
2021/12/16 12:04:04;;;;;;;16.83;6.97;;;9.70;99.90;;;;;;5071468;28;20108;-44
2021/12/16 12:06:31;;;;;;;22.63;7.97;;;9.70;99.90;;;;;;5071867;28;20017;-45
2021/12/16 12:08:59;;;;;;;17.83;8.45;;;9.70;99.90;;;;;;5088747;28;20024;-43
2021/12/16 12:11:29;;;;;;;21.27;7.88;;;9.70;99.90;;;;;;5091480;28;20021;-43
2021/12/16 12:14:08;;;;;;;21.00;7.22;;;9.70;99.90;;;;;;5092047;28;20047;-44
2021/12/16 12:16:42;;;;;;;29.23;7.90;;;9.70;99.90;;;;;;5091737;28;20447;-44
2021/12/16 12:19:12;;;;;;;23.38;9.25;;;9.70;99.90;;;;;;5091569;28;20031;-43
2021/12/16 12:21:46;;;;;;;25.15;9.05;;;9.70;99.90;;;;;;5091898;28;20066;-44
2021/12/16 12:24:19;;;;;;;22.88;8.57;;;9.70;99.90;;;;;;5081348;28;20483;-45
2021/12/16 12:26:56;;;;;;;24.60;9.70;;;9.70;99.90;;;;;;5076871;28;20060;-44
2021/12/16 12:29:33;;;;;;;25.73;9.15;;;9.80;99.90;;;;;;5093546;28;20541;-49
2021/12/16 12:32:05;;;;;;;25.10;8.23;;;9.70;99.90;;;;;;5088344;28;20409;-44
2021/12/16 12:34:34;;;;;;;23.75;7.68;;;9.80;99.90;;;;;;5092035;28;20144;-44
2021/12/16 12:37:02;;;;;;;16.90;7.00;;;9.80;99.90;;;;;;5098100;28;20028;-44
2021/12/16 12:39:33;;;;;;;;;;;9.70;99.90;;;;;;5093055;28;20016;-43
2021/12/16 12:41:59;;;;;;;25.35;6.65;;;9.70;99.90;;;;;;5085254;28;20030;-43
2021/12/16 12:44:25;;;;;;;22.85;7.38;;;9.70;99.90;;;;;;5094234;28;20489;-44
2021/12/16 12:46:52;;;;;;;14.73;6.55;;;9.70;99.90;;;;;;5088362;28;20040;-45
2021/12/16 12:49:25;;;;;;;23.90;9.55;;;9.70;99.90;;;;;;5096136;28;20024;-44
2021/12/16 12:51:52;;;;;;;19.45;7.72;;;9.70;99.90;;;;;;5093802;28;20131;-45
2021/12/16 12:54:23;;;;;;;20.00;6.88;;;9.70;99.90;;;;;;5093779;28;20443;-44
2021/12/16 12:56:50;;;;;;;26.85;8.25;;;9.70;99.90;;;;;;5093983;28;20016;-42
2021/12/16 12:59:17;;;;;;;21.77;7.35;;;9.70;99.90;;;;;;5092692;28;20135;-43
2021/12/16 13:01:53;;;;;;;17.80;6.13;;;9.80;99.90;;;;;;5080459;28;20097;-44
2021/12/16 13:04:30;;;;;;;24.20;7.43;;;9.70;99.90;;;;;;5094073;28;20032;-44
2021/12/16 13:07:03;;;;;;;22.95;7.35;;;9.80;99.90;;;;;;5084860;28;20020;-43
2021/12/16 13:09:39;;;;;;;20.65;7.15;;;9.80;99.90;;;;;;5093649;28;20031;-44
2021/12/16 13:12:30;;;;;;;23.05;7.72;;;9.80;99.90;;;;;;5093407;28;20023;-43
2021/12/16 13:15:05;;;;;;;26.08;7.55;;;9.80;99.90;;;;;;5075559;28;20044;-43
2021/12/16 13:24:18;;;;;;;15.35;6.18;;;9.80;99.90;;;;;;5083688;28;20043;-43
2021/12/16 13:29:42;;;;;;;14.43;6.20;;;9.80;99.90;;;;;;5088261;28;20030;-44
2021/12/16 13:32:18;;;;;;;20.67;6.53;;;9.70;99.90;;;;;;5085528;28;20163;-44
2021/12/16 13:34:59;;;;;;;19.27;7.80;;;9.80;99.90;;;;;;5092121;28;20371;-44
2021/12/16 13:37:35;;;;;;;21.33;7.53;;;9.70;99.90;;;;;;5093254;28;20036;-44
2021/12/16 13:40:33;;;;;;;25.58;7.53;;;9.80;99.90;;;;;;5092961;28;20024;-45
2021/12/16 13:43:13;;;;;;;25.25;7.82;;;9.80;99.90;;;;;;5092183;28;20455;-45
2021/12/16 13:45:58;;;;;;;15.05;5.38;;;9.80;99.90;;;;;;5093281;28;20035;-45
2021/12/16 14:05:34;;;;;;;22.35;7.50;;;9.70;99.90;;;;;;5090054;28;20040;-43
2021/12/16 14:08:03;;;;;;;21.27;6.80;;;9.70;99.90;;;;;;5088539;28;20055;-44
2021/12/16 14:10:47;;;;;;;15.63;6.20;;;9.70;99.90;;;;;;5092667;28;20040;-44
2021/12/16 14:16:24;;;;;;;20.90;7.78;;;9.70;99.90;;;;;;5092158;28;20032;-44
2021/12/16 14:24:48;;;;;;;27.80;7.75;;;9.70;99.90;;;;;;5091991;28;20097;-46
2021/12/16 14:38:26;;;;;;;24.27;7.72;;;9.70;99.90;;;;;;5091901;28;20061;-44
2021/12/16 14:41:07;;;;;;;21.15;6.22;;;9.70;99.90;;;;;;5092115;28;20036;-45
2021/12/16 14:43:41;;;;;;;21.33;6.38;;;9.70;99.90;;;;;;5091984;28;20103;-44
2021/12/16 14:46:09;;;;;;;19.02;6.05;;;9.70;99.90;;;;;;5091188;28;20395;-44
2021/12/16 14:48:35;;;;;;;20.88;6.63;;;9.70;99.90;;;;;;5091790;28;20032;-45
2021/12/16 14:51:11;;;;;;;21.05;7.82;;;9.70;99.90;;;;;;5091724;28;20471;-43
2021/12/16 14:53:44;;;;;;;16.98;6.55;;;9.70;99.90;;;;;;5082851;28;20036;-45
2021/12/16 14:56:14;;;;;;;17.88;7.43;;;9.70;99.90;;;;;;5091907;28;20386;-43
2021/12/16 14:58:42;;;;;;;20.23;7.18;;;9.70;99.90;;;;;;5091448;28;20032;-45
2021/12/16 15:01:27;;;;;;;21.15;7.50;;;9.70;99.90;;;;;;5090252;28;20486;-45
2021/12/16 15:03:54;;;;;;;15.50;7.38;;;9.60;99.90;;;;;;5091679;28;20427;-43
2021/12/16 15:06:33;;;;;;;20.02;6.82;;;9.60;99.90;;;;;;5091040;28;20016;-44
2021/12/16 15:09:16;;;;;;;21.15;8.07;;;9.60;99.90;;;;;;5090456;28;20487;-44
2021/12/16 15:11:51;;;;;;;22.55;7.25;;;9.60;99.90;;;;;;5091245;28;20028;-43
2021/12/16 15:14:33;;;;;;;20.45;7.93;;;9.50;99.90;;;;;;5090835;28;20036;-44
2021/12/16 15:17:14;;;;;;;27.38;7.68;;;9.50;99.90;;;;;;5091785;28;20028;-44
2021/12/16 15:45:03;;;;;;;22.55;6.38;;;9.10;99.90;;;;;;5090526;28;20111;-44
2021/12/16 15:47:29;;;;;;;44.58;7.75;;;9.10;99.90;;;;;;5090672;28;20020;-45
2021/12/16 15:49:56;;;;;;;38.40;8.02;;;9.10;99.90;;;;;;5090806;28;20030;-44
2021/12/16 15:52:22;;;;;;;37.40;7.97;;;9.10;99.90;;;;;;5085599;28;20024;-48
2021/12/16 15:54:51;;;;;;;30.38;6.53;;;9.10;99.90;;;;;;5092167;28;20050;-45
2021/12/16 15:57:17;;;;;;;;;;;9.00;99.90;;;;;;5091206;28;20024;-43
2021/12/16 15:59:52;;;;;;;27.67;7.65;;;9.00;99.90;;;;;;5085234;28;20359;-44
2021/12/16 16:02:20;;;;;;;21.50;7.45;;;9.00;99.90;;;;;;5093531;28;20115;-44
2021/12/16 16:04:46;;;;;;;29.92;7.78;;;9.10;99.90;;;;;;5087852;28;20059;-43
2021/12/16 16:07:14;;;;;;;24.38;7.35;;;9.10;99.90;;;;;;5095053;28;20034;-44
2021/12/16 16:09:52;;;;;;;22.02;7.25;;;9.10;99.90;;;;;;5096141;28;20027;-45
2021/12/16 16:12:23;;;;;;;19.20;6.10;;;9.00;99.90;;;;;;5094416;28;20032;-43
2021/12/16 16:14:50;;;;;;;26.02;6.05;;;9.10;99.90;;;;;;5092066;28;20081;-43
2021/12/16 16:17:20;;;;;;;22.20;6.72;;;9.00;99.90;;;;;;5094240;28;20024;-44
2021/12/16 16:19:48;;;;;;;24.52;5.65;;;9.00;99.90;;;;;;5094617;28;20028;-44
2021/12/16 16:22:14;;;;;;;27.42;6.65;;;9.00;99.90;;;;;;5101485;28;20023;-44